LTAU/ASR METAR and TAF weather

Enter ICAO airport designator
Station Type Date Time Source
LTAU METAR 2019/04/23 00:20 UTC NOAA

LTAU 230020Z 00000KT 9999 BKN035 BKN090 03/00 Q1022 NOSIG


Station Type Date Time Source
LTAU Decoded METAR 2019/04/23 00:20 UTC NOAA

Kayseri / Erkilet, Turkey (LTAU) 38-47N 035-29E 1054M
Apr 22, 2019 - 08:20 PM EDT / 2019.04.23 0020 UTC
Wind: Calm:0
Visibility: greater than 7 mile(s):0
Sky conditions: mostly cloudy
Temperature: 37 F (3 C)
Dew Point: 32 F (0 C)
Relative Humidity: 80%
Pressure (altimeter): 30.18 in. Hg (1022 hPa)
ob: LTAU 230020Z 00000KT 9999 BKN035 BKN090 03/00 Q1022 NOSIG
cycle: 0

Station Type Date Time Source
LTAU TAF 2019/04/22 20:59 UTC NOAA

TAF
AMD LTAU 222050Z 2220/2318 VRB02KT 9999 OVC035
BECMG 2300/2303 SCT040
BECMG 2306/2309 BKN035
BECMG 2311/2314 SCT040
BECMG 2316/2318 CAVOK

Example: see airport list